createdAt,value
2018-11-26T00:00:21.461Z,0.00
2018-11-26T00:01:21.469Z,0.00
2018-11-26T00:02:21.438Z,0.00
2018-11-26T00:03:21.427Z,0.00
2018-11-26T00:04:21.416Z,0.00
2018-11-26T00:05:21.413Z,0.00
2018-11-26T00:06:21.413Z,0.00
2018-11-26T00:07:21.389Z,0.00
2018-11-26T00:08:21.374Z,0.00
2018-11-26T00:09:21.363Z,0.00
2018-11-26T00:10:21.353Z,0.00
2018-11-26T00:11:21.358Z,0.00
2018-11-26T00:12:21.331Z,0.00
2018-11-26T00:13:21.329Z,0.00
2018-11-26T00:14:21.314Z,0.00
2018-11-26T00:15:21.300Z,0.00
2018-11-26T00:16:21.302Z,0.00
2018-11-26T00:17:21.279Z,0.00
2018-11-26T00:18:21.269Z,0.00
2018-11-26T00:19:21.265Z,0.00
2018-11-26T00:20:21.253Z,0.00
2018-11-26T00:21:21.248Z,0.00
2018-11-26T00:22:21.229Z,0.00
2018-11-26T00:23:21.218Z,0.00
2018-11-26T00:24:21.208Z,0.00
2018-11-26T00:25:21.196Z,0.00
2018-11-26T00:26:21.209Z,0.00
2018-11-26T00:27:21.173Z,0.00
2018-11-26T00:28:21.164Z,0.00
2018-11-26T00:29:21.153Z,0.00
2018-11-26T00:30:21.143Z,0.00
2018-11-26T00:31:21.145Z,0.00
2018-11-26T00:32:21.130Z,0.00
2018-11-26T00:33:21.113Z,0.00
2018-11-26T00:34:21.124Z,0.00
2018-11-26T00:35:21.093Z,0.00
2018-11-26T00:36:21.099Z,0.00
2018-11-26T00:37:21.069Z,0.00
2018-11-26T00:38:21.065Z,0.00
2018-11-26T00:39:21.049Z,0.00
2018-11-26T00:40:21.038Z,0.00
2018-11-26T00:41:21.046Z,0.00
2018-11-26T00:42:21.018Z,0.00
2018-11-26T00:43:21.007Z,0.00
2018-11-26T00:44:20.999Z,0.00
2018-11-26T00:45:20.988Z,0.00
2018-11-26T00:46:20.995Z,0.00
2018-11-26T00:47:20.965Z,0.00
2018-11-26T00:48:20.957Z,0.00
2018-11-26T00:49:20.949Z,0.00
2018-11-26T00:50:20.934Z,0.00
2018-11-26T00:51:20.936Z,0.00
2018-11-26T00:52:20.922Z,0.00
2018-11-26T00:53:20.902Z,0.00
2018-11-26T00:54:20.894Z,0.00
2018-11-26T00:55:20.881Z,0.00
2018-11-26T00:56:20.885Z,0.00
2018-11-26T00:57:20.861Z,0.00
2018-11-26T00:58:20.856Z,0.00
2018-11-26T00:59:20.852Z,0.00
2018-11-26T01:00:20.829Z,0.00
2018-11-26T01:01:20.839Z,0.00
2018-11-26T01:02:20.809Z,0.00
2018-11-26T01:03:20.797Z,0.00
2018-11-26T01:04:20.786Z,0.00
2018-11-26T01:05:20.781Z,0.00
2018-11-26T01:06:21.006Z,0.00
2018-11-26T01:07:20.777Z,0.00
2018-11-26T01:08:20.744Z,0.00
2018-11-26T01:09:20.733Z,0.00
2018-11-26T01:10:20.730Z,0.00
2018-11-26T01:11:20.714Z,0.00
2018-11-26T01:12:20.721Z,0.00
2018-11-26T01:13:20.691Z,0.00
2018-11-26T01:14:20.681Z,0.00
2018-11-26T01:15:20.669Z,0.00
2018-11-26T01:16:20.663Z,0.00
2018-11-26T01:17:20.660Z,0.00
2018-11-26T01:18:20.646Z,0.00
2018-11-26T01:19:20.634Z,0.00
2018-11-26T01:20:20.616Z,0.00
2018-11-26T01:21:20.610Z,0.00
2018-11-26T01:22:20.614Z,0.00
2018-11-26T01:23:20.601Z,0.00
2018-11-26T01:24:20.583Z,0.00
2018-11-26T01:25:20.568Z,0.00
2018-11-26T01:26:20.555Z,0.00
2018-11-26T01:27:20.548Z,0.00
2018-11-26T01:28:20.549Z,0.00
2018-11-26T01:29:20.524Z,0.00
2018-11-26T01:30:20.514Z,0.00
2018-11-26T01:31:20.528Z,0.00
2018-11-26T01:32:20.523Z,0.00
2018-11-26T01:33:20.539Z,0.00
2018-11-26T01:34:20.491Z,0.00
2018-11-26T01:35:20.462Z,0.00
2018-11-26T01:36:20.455Z,0.00
2018-11-26T01:37:20.441Z,0.00
2018-11-26T01:38:20.442Z,0.00
2018-11-26T01:39:20.425Z,0.00
2018-11-26T01:40:20.416Z,0.00
2018-11-26T01:41:20.403Z,0.00
2018-11-26T01:42:20.395Z,0.00
2018-11-26T01:43:20.392Z,0.00
2018-11-26T01:44:20.368Z,0.00
2018-11-26T01:45:20.355Z,0.00
2018-11-26T01:46:20.344Z,0.00
2018-11-26T01:47:20.340Z,0.00
2018-11-26T01:48:20.342Z,0.00
2018-11-26T01:49:20.319Z,0.00
2018-11-26T01:50:20.302Z,0.00
2018-11-26T01:51:20.298Z,0.00
2018-11-26T01:52:20.281Z,0.00
2018-11-26T01:53:20.293Z,0.00
2018-11-26T01:54:20.263Z,0.00
2018-11-26T01:55:20.251Z,0.00
2018-11-26T01:56:20.241Z,0.00
2018-11-26T01:57:20.231Z,0.00
2018-11-26T01:58:20.235Z,0.00
2018-11-26T01:59:20.211Z,0.00
2018-11-26T02:00:20.199Z,0.00
2018-11-26T02:01:20.188Z,0.00
2018-11-26T02:02:20.179Z,0.00
2018-11-26T02:03:20.183Z,0.00
2018-11-26T02:04:20.165Z,0.00
2018-11-26T02:05:20.157Z,0.00
2018-11-26T02:06:20.143Z,0.00
2018-11-26T02:07:20.140Z,0.00
2018-11-26T02:08:20.128Z,0.00
2018-11-26T02:09:20.104Z,0.00
2018-11-26T02:10:20.094Z,0.00
2018-11-26T02:11:20.082Z,0.00
2018-11-26T02:12:20.074Z,0.00
2018-11-26T02:13:20.100Z,0.00
2018-11-26T02:14:20.054Z,0.00
2018-11-26T02:15:20.045Z,0.00
2018-11-26T02:16:20.038Z,0.00
2018-11-26T02:17:20.021Z,0.00
2018-11-26T02:18:20.010Z,0.00
2018-11-26T02:19:20.033Z,0.00
2018-11-26T02:20:19.990Z,0.00
2018-11-26T02:21:19.978Z,0.00
2018-11-26T02:22:19.969Z,0.00
2018-11-26T02:23:19.961Z,0.00
2018-11-26T02:24:19.962Z,0.00
2018-11-26T02:25:19.944Z,0.00
2018-11-26T02:26:19.950Z,0.00
2018-11-26T02:27:20.481Z,0.00
2018-11-26T02:28:19.905Z,0.00
2018-11-26T02:29:19.919Z,0.00
2018-11-26T02:30:19.889Z,0.00
2018-11-26T02:31:19.879Z,0.00
2018-11-26T02:32:19.864Z,0.00
2018-11-26T02:33:19.853Z,0.00
2018-11-26T02:34:19.866Z,0.00
2018-11-26T02:35:19.831Z,0.00
2018-11-26T02:36:19.821Z,0.00
2018-11-26T02:37:19.814Z,0.00
2018-11-26T02:38:19.803Z,0.00
2018-11-26T02:39:19.811Z,0.00
2018-11-26T02:40:19.779Z,0.00
2018-11-26T02:41:19.770Z,0.00
2018-11-26T02:42:19.757Z,0.00
2018-11-26T02:43:19.747Z,0.00
2018-11-26T02:44:19.752Z,0.00
2018-11-26T02:45:19.736Z,0.00
2018-11-26T02:46:19.717Z,0.00
2018-11-26T02:47:19.708Z,0.00
2018-11-26T02:48:19.695Z,0.00
2018-11-26T02:49:19.699Z,0.00
2018-11-26T02:50:19.672Z,0.00
2018-11-26T02:51:19.668Z,0.00
2018-11-26T02:52:19.654Z,0.00
2018-11-26T02:53:19.643Z,0.00
2018-11-26T02:54:19.646Z,0.00
2018-11-26T02:55:19.659Z,0.00
2018-11-26T02:56:19.615Z,0.00
2018-11-26T02:57:19.610Z,0.00
2018-11-26T02:58:19.590Z,0.00
2018-11-26T02:59:19.592Z,0.00
2018-11-26T03:00:19.570Z,0.00
2018-11-26T03:01:19.558Z,0.00
2018-11-26T03:02:19.548Z,0.00
2018-11-26T03:03:19.551Z,0.00
2018-11-26T03:04:19.540Z,0.00
2018-11-26T03:05:19.515Z,0.00
2018-11-26T03:06:19.506Z,0.00
2018-11-26T03:07:19.496Z,0.00
2018-11-26T03:08:19.489Z,0.00
2018-11-26T03:09:19.495Z,0.00
2018-11-26T03:10:19.464Z,0.00
2018-11-26T03:11:19.453Z,0.00
2018-11-26T03:12:19.446Z,0.00
2018-11-26T03:13:19.431Z,0.00
2018-11-26T03:14:19.436Z,0.00
2018-11-26T03:15:19.420Z,0.00
2018-11-26T03:16:19.401Z,0.00
2018-11-26T03:17:19.389Z,0.00
2018-11-26T03:18:19.385Z,0.00
2018-11-26T03:19:19.383Z,0.00
2018-11-26T03:20:19.360Z,0.00
2018-11-26T03:21:19.362Z,0.00
2018-11-26T03:22:19.337Z,0.00
2018-11-26T03:23:19.336Z,0.00
2018-11-26T03:24:19.331Z,0.00
2018-11-26T03:25:19.320Z,0.00
2018-11-26T03:26:19.296Z,0.00
2018-11-26T03:27:19.296Z,0.00
2018-11-26T03:28:19.289Z,0.00
2018-11-26T03:29:19.265Z,0.00
2018-11-26T03:30:19.262Z,0.00
2018-11-26T03:31:19.244Z,0.00
2018-11-26T03:32:19.232Z,0.00
2018-11-26T03:33:19.257Z,0.00
2018-11-26T03:34:19.212Z,0.00
2018-11-26T03:35:19.201Z,0.00
2018-11-26T03:36:19.191Z,0.00
2018-11-26T03:37:19.182Z,0.00
2018-11-26T03:38:19.183Z,0.00
2018-11-26T03:39:19.166Z,0.00
2018-11-26T03:40:19.153Z,0.00
2018-11-26T03:41:19.142Z,0.00
2018-11-26T03:42:19.128Z,0.00
2018-11-26T03:43:19.131Z,0.00
2018-11-26T03:44:19.108Z,0.00
2018-11-26T03:45:19.109Z,0.00
2018-11-26T03:46:19.087Z,0.00
2018-11-26T03:47:19.093Z,0.00
2018-11-26T03:48:19.082Z,0.00
2018-11-26T03:49:19.058Z,0.00
2018-11-26T03:50:19.044Z,0.00
2018-11-26T03:51:19.040Z,0.00
2018-11-26T03:52:19.024Z,0.00
2018-11-26T03:53:19.024Z,0.00
2018-11-26T03:54:19.000Z,0.00
2018-11-26T03:55:18.993Z,0.00
2018-11-26T03:56:18.979Z,0.00
2018-11-26T03:57:18.973Z,0.00
2018-11-26T03:58:18.976Z,0.00
2018-11-26T03:59:18.949Z,0.00
2018-11-26T04:00:18.950Z,0.00
2018-11-26T04:01:18.928Z,0.00
2018-11-26T04:02:18.924Z,0.00
2018-11-26T04:03:18.922Z,0.00
2018-11-26T04:04:18.910Z,0.00
2018-11-26T04:05:18.888Z,0.00
2018-11-26T04:06:18.876Z,0.00
2018-11-26T04:07:18.866Z,0.00
2018-11-26T04:08:18.868Z,0.00
2018-11-26T04:09:18.845Z,0.00
2018-11-26T04:10:18.852Z,0.00
2018-11-26T04:11:18.825Z,0.00
2018-11-26T04:12:18.815Z,0.00
2018-11-26T04:13:18.814Z,0.00
2018-11-26T04:14:18.792Z,0.00
2018-11-26T04:15:18.785Z,0.00
2018-11-26T04:16:18.773Z,0.00
2018-11-26T04:17:18.773Z,0.00
2018-11-26T04:18:18.763Z,0.00
2018-11-26T04:19:18.739Z,0.00
2018-11-26T04:20:18.729Z,0.00
2018-11-26T04:21:18.718Z,0.00
2018-11-26T04:22:18.708Z,0.00
2018-11-26T04:23:18.719Z,0.00
2018-11-26T04:24:18.687Z,0.00
2018-11-26T04:25:18.678Z,0.00
2018-11-26T04:26:18.666Z,0.00
2018-11-26T04:27:18.656Z,0.00
2018-11-26T04:28:18.659Z,0.00
2018-11-26T04:29:18.646Z,0.00
2018-11-26T04:30:18.623Z,0.00
2018-11-26T04:31:18.615Z,0.00
2018-11-26T04:32:18.603Z,0.00
2018-11-26T04:33:18.605Z,0.00
2018-11-26T04:34:18.582Z,0.00
2018-11-26T04:35:18.577Z,0.00
2018-11-26T04:36:18.565Z,0.00
2018-11-26T04:37:18.551Z,0.00
2018-11-26T04:38:18.551Z,0.00
2018-11-26T04:39:18.529Z,0.00
2018-11-26T04:40:18.518Z,0.00
2018-11-26T04:41:18.508Z,0.00
2018-11-26T04:42:18.507Z,0.00
2018-11-26T04:43:18.501Z,0.00
2018-11-26T04:44:18.478Z,0.00
2018-11-26T04:45:18.466Z,0.00
2018-11-26T04:46:18.454Z,0.00
2018-11-26T04:47:18.449Z,0.00
2018-11-26T04:48:18.458Z,0.00
2018-11-26T04:49:18.428Z,0.00
2018-11-26T04:50:18.413Z,0.00
2018-11-26T04:51:18.402Z,0.00
2018-11-26T04:52:18.391Z,0.00
2018-11-26T04:53:18.394Z,0.00
2018-11-26T04:54:18.371Z,0.00
2018-11-26T04:55:18.377Z,0.00
2018-11-26T04:56:18.352Z,0.00
2018-11-26T04:57:18.339Z,0.00
2018-11-26T04:58:18.341Z,0.00
2018-11-26T04:59:18.317Z,0.00
2018-11-26T05:00:18.314Z,0.00
2018-11-26T05:01:18.305Z,0.00
2018-11-26T05:02:18.286Z,0.00
2018-11-26T05:03:18.290Z,0.00
2018-11-26T05:04:18.264Z,0.00
2018-11-26T05:05:18.255Z,0.00
2018-11-26T05:06:18.244Z,0.00
2018-11-26T05:07:18.238Z,0.00
2018-11-26T05:08:18.248Z,0.00
2018-11-26T05:09:18.214Z,0.00
2018-11-26T05:10:18.202Z,0.00
2018-11-26T05:11:18.191Z,0.00
2018-11-26T05:12:18.181Z,0.00
2018-11-26T05:13:18.196Z,0.00
2018-11-26T05:14:18.174Z,0.00
2018-11-26T05:15:18.150Z,0.00
2018-11-26T05:16:18.138Z,0.00
2018-11-26T05:17:18.133Z,0.00
2018-11-26T05:18:18.117Z,0.00
2018-11-26T05:19:18.118Z,0.00
2018-11-26T05:20:18.102Z,0.00
2018-11-26T05:21:18.086Z,0.00
2018-11-26T05:22:18.081Z,0.00
2018-11-26T05:23:18.064Z,0.00
2018-11-26T05:24:18.067Z,0.00
2018-11-26T05:25:18.044Z,0.00
2018-11-26T05:26:18.036Z,0.00
2018-11-26T05:27:18.032Z,0.00
2018-11-26T05:28:18.020Z,0.00
2018-11-26T05:29:18.014Z,0.00
2018-11-26T05:30:17.990Z,0.00
2018-11-26T05:31:17.979Z,0.00
2018-11-26T05:32:17.971Z,0.00
2018-11-26T05:33:17.974Z,0.00
2018-11-26T05:34:17.961Z,0.00
2018-11-26T05:35:17.937Z,0.00
2018-11-26T05:36:17.931Z,0.00
2018-11-26T05:37:17.917Z,0.00
2018-11-26T05:38:17.907Z,0.00
2018-11-26T05:39:17.916Z,0.00
2018-11-26T05:40:17.885Z,0.00
2018-11-26T05:41:17.876Z,0.00
2018-11-26T05:42:17.864Z,0.00
2018-11-26T05:43:17.856Z,0.00
2018-11-26T05:44:17.855Z,0.00
2018-11-26T05:45:17.844Z,0.00
2018-11-26T05:46:17.820Z,0.00
2018-11-26T05:47:17.815Z,0.00
2018-11-26T05:48:17.799Z,0.00
2018-11-26T05:49:17.806Z,0.00
2018-11-26T05:50:17.779Z,0.00
2018-11-26T05:51:17.784Z,0.00
2018-11-26T05:52:17.757Z,0.00
2018-11-26T05:53:17.751Z,0.00
2018-11-26T05:54:17.752Z,0.00
2018-11-26T05:55:17.726Z,0.00
2018-11-26T05:56:17.715Z,0.00
2018-11-26T05:57:17.710Z,0.00
2018-11-26T05:58:17.694Z,0.00
2018-11-26T05:59:17.695Z,0.00
2018-11-26T06:00:17.673Z,0.00
2018-11-26T06:01:17.667Z,0.00
2018-11-26T06:02:17.651Z,0.00
2018-11-26T06:03:17.649Z,0.00
2018-11-26T06:04:17.642Z,0.00
2018-11-26T06:05:17.631Z,0.00
2018-11-26T06:06:17.612Z,0.00
2018-11-26T06:07:17.601Z,0.00
2018-11-26T06:08:17.588Z,0.00
2018-11-26T06:09:17.596Z,0.00
2018-11-26T06:10:17.566Z,0.00
2018-11-26T06:11:17.558Z,0.00
2018-11-26T06:12:17.547Z,0.00
2018-11-26T06:13:17.534Z,0.00
2018-11-26T06:14:17.573Z,0.00
2018-11-26T06:15:17.518Z,0.00
2018-11-26T06:16:17.513Z,0.00
2018-11-26T06:17:17.495Z,0.00
2018-11-26T06:18:17.483Z,0.00
2018-11-26T06:19:17.484Z,4.00
2018-11-26T06:20:17.465Z,4.00
2018-11-26T06:21:17.451Z,0.00
2018-11-26T06:22:17.449Z,4.00
2018-11-26T06:23:17.429Z,4.00
2018-11-26T06:24:17.434Z,4.00
2018-11-26T06:25:17.425Z,4.00
2018-11-26T06:26:17.399Z,8.00
2018-11-26T06:27:17.389Z,8.00
2018-11-26T06:28:17.387Z,8.00
2018-11-26T06:29:17.391Z,12.00
2018-11-26T06:30:17.361Z,12.00
2018-11-26T06:31:17.350Z,16.00
2018-11-26T06:32:17.338Z,16.00
2018-11-26T06:33:17.329Z,16.00
2018-11-26T06:34:17.338Z,24.00
2018-11-26T06:35:17.305Z,28.00
2018-11-26T06:36:17.295Z,32.00
2018-11-26T06:37:17.283Z,36.00
2018-11-26T06:38:17.273Z,44.00
2018-11-26T06:39:17.276Z,52.00
2018-11-26T06:40:17.263Z,60.00
2018-11-26T06:41:17.244Z,68.00
2018-11-26T06:42:17.232Z,76.00
2018-11-26T06:43:17.469Z,84.00
2018-11-26T06:44:17.223Z,92.00
2018-11-26T06:45:17.197Z,104.00
2018-11-26T06:46:17.191Z,108.00
2018-11-26T06:47:17.177Z,120.00
2018-11-26T06:48:17.167Z,132.00
2018-11-26T06:49:17.168Z,140.00
2018-11-26T06:50:17.186Z,152.00
2018-11-26T06:51:17.138Z,156.00
2018-11-26T06:52:17.130Z,164.00
2018-11-26T06:53:17.114Z,172.00
2018-11-26T06:54:17.118Z,180.00
2018-11-26T06:55:17.093Z,192.00
2018-11-26T06:56:17.084Z,200.00
2018-11-26T06:57:17.072Z,212.00
2018-11-26T06:58:17.065Z,220.00
2018-11-26T06:59:17.062Z,228.00
2018-11-26T07:00:17.040Z,236.00
2018-11-26T07:01:17.029Z,240.00
2018-11-26T07:02:17.023Z,252.00
2018-11-26T07:03:17.008Z,260.00
2018-11-26T07:04:17.033Z,276.00
2018-11-26T07:05:16.987Z,288.00
2018-11-26T07:06:16.977Z,300.00
2018-11-26T07:07:16.967Z,316.00
2018-11-26T07:08:16.955Z,336.00
2018-11-26T07:09:16.962Z,356.00
2018-11-26T07:10:16.949Z,376.00
2018-11-26T07:11:16.923Z,408.00
2018-11-26T07:12:16.913Z,440.00
2018-11-26T07:13:16.901Z,472.00
2018-11-26T07:14:16.904Z,500.00
2018-11-26T07:15:16.882Z,516.00
2018-11-26T07:16:16.877Z,524.00
2018-11-26T07:17:16.863Z,528.00
2018-11-26T07:18:16.850Z,548.00
2018-11-26T07:19:16.851Z,592.00
2018-11-26T07:20:16.829Z,652.00
2018-11-26T07:21:16.816Z,728.00
2018-11-26T07:22:16.813Z,792.00
2018-11-26T07:23:16.796Z,840.00
2018-11-26T07:24:16.800Z,888.00
2018-11-26T07:25:16.775Z,948.00
2018-11-26T07:26:16.764Z,1008.00
2018-11-26T07:27:16.756Z,1052.00
2018-11-26T07:28:16.759Z,1076.00
2018-11-26T07:29:23.849Z,1108.00
2018-11-26T07:30:17.726Z,1156.00
2018-11-26T07:31:16.712Z,1212.00
2018-11-26T07:32:16.701Z,1272.00
2018-11-26T07:33:16.692Z,1328.00
2018-11-26T07:34:16.699Z,1388.00
2018-11-26T07:35:16.680Z,1424.00
2018-11-26T07:36:16.661Z,1456.00
2018-11-26T07:37:16.651Z,1444.00
2018-11-26T07:38:16.639Z,1396.00
2018-11-26T07:39:16.640Z,1340.00
2018-11-26T07:40:16.616Z,1316.00
2018-11-26T07:41:16.621Z,1296.00
2018-11-26T07:42:16.599Z,1300.00
2018-11-26T07:43:16.587Z,1312.00
2018-11-26T07:44:16.589Z,1316.00
2018-11-26T07:45:16.564Z,1300.00
2018-11-26T07:46:16.555Z,1272.00
2018-11-26T07:47:16.546Z,1248.00
2018-11-26T07:48:16.533Z,1212.00
2018-11-26T07:49:16.534Z,1164.00
2018-11-26T07:50:16.514Z,1128.00
2018-11-26T07:51:16.503Z,1100.00
2018-11-26T07:52:16.496Z,1080.00
2018-11-26T07:53:16.495Z,1092.00
2018-11-26T07:54:16.483Z,1124.00
2018-11-26T07:55:16.459Z,1164.00
2018-11-26T07:56:16.449Z,1224.00
2018-11-26T07:57:16.440Z,1296.00
2018-11-26T07:58:16.432Z,1368.00
2018-11-26T07:59:16.434Z,1440.00
2018-11-26T08:00:16.413Z,1496.00
2018-11-26T08:01:16.397Z,1552.00
2018-11-26T08:02:16.388Z,1612.00
2018-11-26T08:03:16.378Z,1696.00
2018-11-26T08:04:16.378Z,1780.00
2018-11-26T08:05:16.356Z,1900.00
2018-11-26T08:06:16.349Z,2044.00
2018-11-26T08:07:16.339Z,2184.00
2018-11-26T08:08:16.328Z,2320.00
2018-11-26T08:09:16.325Z,2444.00
2018-11-26T08:10:16.311Z,2564.00
2018-11-26T08:11:16.296Z,2684.00
2018-11-26T08:12:16.335Z,2768.00
2018-11-26T08:13:16.272Z,2832.00
2018-11-26T08:14:16.290Z,2908.00
2018-11-26T08:15:16.254Z,3008.00
2018-11-26T08:16:16.242Z,3112.00
2018-11-26T08:17:16.230Z,3236.00
2018-11-26T08:18:16.224Z,3360.00
2018-11-26T08:19:16.208Z,3456.00
2018-11-26T08:20:16.256Z,3552.00
2018-11-26T08:21:16.191Z,3656.00
2018-11-26T08:22:16.178Z,3824.00
2018-11-26T08:23:16.168Z,4016.00
2018-11-26T08:24:16.163Z,4204.00
2018-11-26T08:25:16.220Z,4340.00
2018-11-26T08:26:16.142Z,4356.00
2018-11-26T08:27:16.123Z,4328.00
2018-11-26T08:28:16.123Z,4240.00
2018-11-26T08:29:16.106Z,4144.00
2018-11-26T08:30:16.109Z,4128.00
2018-11-26T08:31:16.088Z,4148.00
2018-11-26T08:32:16.075Z,4080.00
2018-11-26T08:33:16.060Z,3908.00
2018-11-26T08:34:16.050Z,3696.00
2018-11-26T08:35:16.052Z,3536.00
2018-11-26T08:36:16.034Z,3604.00
2018-11-26T08:37:16.020Z,3872.00
2018-11-26T08:38:16.007Z,4160.00
2018-11-26T08:39:15.998Z,4376.00
2018-11-26T08:40:16.003Z,4500.00
2018-11-26T08:41:15.977Z,4592.00
2018-11-26T08:42:15.978Z,4668.00
2018-11-26T08:43:15.964Z,4744.00
2018-11-26T08:44:15.947Z,4768.00
2018-11-26T08:45:15.945Z,4772.00
2018-11-26T08:46:15.924Z,4740.00
2018-11-26T08:47:15.912Z,4716.00
2018-11-26T08:48:15.903Z,4760.00
2018-11-26T08:49:15.898Z,5012.00
2018-11-26T08:50:15.893Z,5412.00
2018-11-26T08:51:15.869Z,5796.00
2018-11-26T08:52:15.862Z,6044.00
2018-11-26T08:53:15.847Z,6180.00
2018-11-26T08:54:15.840Z,6180.00
2018-11-26T08:55:15.850Z,6000.00
2018-11-26T08:56:16.013Z,5672.00
2018-11-26T08:57:15.806Z,5540.00
2018-11-26T08:58:15.796Z,5748.00
2018-11-26T08:59:15.784Z,6176.00
2018-11-26T09:00:15.956Z,6556.00
2018-11-26T09:01:15.769Z,6864.00
2018-11-26T09:02:15.754Z,7064.00
2018-11-26T09:03:15.746Z,7152.00
2018-11-26T09:04:15.730Z,7260.00
2018-11-26T09:05:15.734Z,7484.00
2018-11-26T09:06:15.712Z,7972.00
2018-11-26T09:07:15.698Z,8708.00
2018-11-26T09:08:15.687Z,9252.00
2018-11-26T09:09:15.680Z,9272.00
2018-11-26T09:10:15.696Z,9216.00
2018-11-26T09:11:15.658Z,9240.00
2018-11-26T09:12:15.644Z,9400.00
2018-11-26T09:13:15.633Z,9740.00
2018-11-26T09:14:15.627Z,10332.00
2018-11-26T09:15:15.627Z,11160.00
2018-11-26T09:16:15.602Z,11968.00
2018-11-26T09:17:15.600Z,12220.00
2018-11-26T09:18:15.582Z,12180.00
2018-11-26T09:19:15.569Z,12036.00
2018-11-26T09:20:15.638Z,12004.00
2018-11-26T09:21:15.548Z,12304.00
2018-11-26T09:22:15.538Z,12944.00
2018-11-26T09:23:15.535Z,13916.00
2018-11-26T09:24:15.518Z,14232.00
2018-11-26T09:25:15.520Z,14636.00
2018-11-26T09:26:15.495Z,14748.00
2018-11-26T09:27:15.490Z,14820.00
2018-11-26T09:28:15.475Z,14888.00
2018-11-26T09:29:15.468Z,15140.00
2018-11-26T09:30:15.467Z,15276.00
2018-11-26T09:31:15.443Z,15256.00
2018-11-26T09:32:15.437Z,15272.00
2018-11-26T09:33:15.424Z,15200.00
2018-11-26T09:34:15.413Z,15184.00
2018-11-26T09:35:15.423Z,15068.00
2018-11-26T09:36:15.390Z,14992.00
2018-11-26T09:37:15.378Z,15124.00
2018-11-26T09:38:15.370Z,15344.00
2018-11-26T09:39:15.355Z,15308.00
2018-11-26T09:40:15.360Z,15360.00
2018-11-26T09:41:15.340Z,15316.00
2018-11-26T09:42:15.331Z,14880.00
2018-11-26T09:43:15.314Z,13972.00
2018-11-26T09:44:15.303Z,13180.00
2018-11-26T09:45:15.326Z,12732.00
2018-11-26T09:46:15.281Z,12912.00
2018-11-26T09:47:15.269Z,13608.00
2018-11-26T09:48:15.264Z,14152.00
2018-11-26T09:49:15.251Z,14076.00
2018-11-26T09:50:15.239Z,13128.00
2018-11-26T09:51:15.240Z,12500.00
2018-11-26T09:52:15.216Z,11760.00
2018-11-26T09:53:15.209Z,11108.00
2018-11-26T09:54:15.198Z,10376.00
2018-11-26T09:55:15.185Z,9612.00
2018-11-26T09:56:15.189Z,8780.00
2018-11-26T09:57:15.161Z,7944.00
2018-11-26T09:58:15.151Z,7124.00
2018-11-26T09:59:15.142Z,6516.00
2018-11-26T10:00:15.134Z,5984.00
2018-11-26T10:01:15.136Z,5496.00
2018-11-26T10:02:15.108Z,5120.00
2018-11-26T10:03:15.102Z,4756.00
2018-11-26T10:04:15.086Z,4452.00
2018-11-26T10:05:15.077Z,4248.00
2018-11-26T10:06:15.078Z,4048.00
2018-11-26T10:07:15.063Z,3880.00
2018-11-26T10:08:15.086Z,3768.00
2018-11-26T10:09:15.040Z,3624.00
2018-11-26T10:10:15.026Z,3508.00
2018-11-26T10:11:15.036Z,3420.00
2018-11-26T10:12:15.016Z,3336.00
2018-11-26T10:13:14.990Z,3232.00
2018-11-26T10:14:14.980Z,3088.00
2018-11-26T10:15:14.972Z,2944.00
2018-11-26T10:16:14.972Z,2836.00
2018-11-26T10:17:14.949Z,2788.00
2018-11-26T10:18:14.937Z,2800.00
2018-11-26T10:19:14.928Z,2868.00
2018-11-26T10:20:14.924Z,2996.00
2018-11-26T10:21:14.920Z,3192.00
2018-11-26T10:22:14.894Z,3488.00
2018-11-26T10:23:14.884Z,3848.00
2018-11-26T10:24:14.876Z,4200.00
2018-11-26T10:25:14.863Z,4564.00
2018-11-26T10:26:14.916Z,4984.00
2018-11-26T10:27:14.843Z,5348.00
2018-11-26T10:28:14.832Z,5480.00
2018-11-26T10:29:14.820Z,5628.00
2018-11-26T10:30:14.810Z,5932.00
2018-11-26T10:31:14.811Z,6400.00
2018-11-26T10:32:14.796Z,6764.00
2018-11-26T10:33:15.125Z,6768.00
2018-11-26T10:34:14.766Z,6648.00
2018-11-26T10:35:14.756Z,6656.00
2018-11-26T10:36:14.757Z,6760.00
2018-11-26T10:37:14.734Z,6984.00
2018-11-26T10:38:14.725Z,7148.00
2018-11-26T10:39:14.719Z,7172.00
2018-11-26T10:40:14.709Z,7204.00
2018-11-26T10:41:14.705Z,7400.00
2018-11-26T10:42:14.692Z,7648.00
2018-11-26T10:43:14.672Z,7796.00
2018-11-26T10:44:14.663Z,7896.00
2018-11-26T10:45:14.649Z,7996.00
2018-11-26T10:46:14.664Z,8056.00
2018-11-26T10:47:14.634Z,8108.00
2018-11-26T10:48:14.619Z,8192.00
2018-11-26T10:49:14.610Z,8248.00
2018-11-26T10:50:15.104Z,8304.00
2018-11-26T10:51:14.599Z,8384.00
2018-11-26T10:52:14.575Z,8332.00
2018-11-26T10:53:14.568Z,8088.00
2018-11-26T10:54:14.553Z,7808.00
2018-11-26T10:55:14.541Z,7592.00
2018-11-26T10:56:14.544Z,7356.00
2018-11-26T10:57:14.522Z,7032.00
2018-11-26T10:58:14.511Z,6652.00
2018-11-26T10:59:14.508Z,6292.00
2018-11-26T11:00:14.489Z,6028.00
2018-11-26T11:01:14.496Z,5828.00
2018-11-26T11:02:14.468Z,5672.00
2018-11-26T11:03:14.457Z,5576.00
2018-11-26T11:04:14.452Z,5592.00
2018-11-26T11:05:14.444Z,5680.00
2018-11-26T11:06:14.437Z,5712.00
2018-11-26T11:07:14.416Z,5692.00
2018-11-26T11:08:14.404Z,5752.00
2018-11-26T11:09:14.391Z,5924.00
2018-11-26T11:10:14.384Z,6056.00
2018-11-26T11:11:14.391Z,6072.00
2018-11-26T11:12:14.364Z,6052.00
2018-11-26T11:13:14.349Z,6140.00
2018-11-26T11:14:14.340Z,6280.00
2018-11-26T11:15:14.331Z,6344.00
2018-11-26T11:16:14.331Z,6324.00
2018-11-26T11:17:14.312Z,6204.00
2018-11-26T11:18:14.305Z,6296.00
2018-11-26T11:19:14.288Z,6404.00
2018-11-26T11:20:14.275Z,6504.00
2018-11-26T11:21:14.275Z,6388.00
2018-11-26T11:22:14.255Z,6228.00
2018-11-26T11:23:14.243Z,6068.00
2018-11-26T11:24:14.235Z,5988.00
2018-11-26T11:25:14.221Z,5976.00
2018-11-26T11:26:14.222Z,6020.00
2018-11-26T11:27:14.383Z,5988.00
2018-11-26T11:28:14.192Z,5860.00
2018-11-26T11:29:14.177Z,5692.00
2018-11-26T11:30:14.171Z,5580.00
2018-11-26T11:31:14.171Z,5500.00
2018-11-26T11:32:14.146Z,5448.00
2018-11-26T11:33:43.951Z,5500.00
2018-11-26T11:34:43.938Z,5588.00
2018-11-26T11:35:43.929Z,5768.00
2018-11-26T11:36:43.935Z,5980.00
2018-11-26T11:37:43.914Z,6132.00
2018-11-26T11:38:44.057Z,6164.00
2018-11-26T11:39:44.237Z,6192.00
2018-11-26T11:40:43.876Z,6224.00
2018-11-26T11:41:43.876Z,6328.00
2018-11-26T11:42:43.881Z,6476.00
2018-11-26T11:43:43.846Z,6580.00
2018-11-26T11:44:43.831Z,6588.00
2018-11-26T11:45:43.829Z,6420.00
2018-11-26T11:46:43.824Z,6164.00
2018-11-26T11:47:43.799Z,5940.00
2018-11-26T11:48:43.793Z,5780.00
2018-11-26T11:49:43.781Z,5680.00
2018-11-26T11:50:43.775Z,5608.00
2018-11-26T11:51:43.768Z,5588.00
2018-11-26T11:52:43.747Z,5632.00
2018-11-26T11:53:43.733Z,5656.00
2018-11-26T11:54:43.731Z,5648.00
2018-11-26T11:55:43.714Z,5648.00
2018-11-26T11:56:43.717Z,5664.00
2018-11-26T11:57:43.692Z,5712.00
2018-11-26T11:58:43.687Z,5784.00
2018-11-26T11:59:43.672Z,5904.00
2018-11-26T12:00:43.662Z,6044.00
2018-11-26T12:01:43.677Z,6124.00
2018-11-26T12:02:43.640Z,6112.00
2018-11-26T12:03:43.628Z,5936.00
2018-11-26T12:04:43.636Z,5736.00
2018-11-26T12:05:43.611Z,5748.00
2018-11-26T12:06:43.609Z,5940.00
2018-11-26T12:07:43.594Z,6100.00
2018-11-26T12:08:43.580Z,6160.00
2018-11-26T12:09:43.564Z,6240.00
2018-11-26T12:10:43.553Z,6280.00
2018-11-26T12:11:43.556Z,6252.00
2018-11-26T12:12:43.533Z,6228.00
2018-11-26T12:13:43.521Z,6200.00
2018-11-26T12:14:43.514Z,6108.00
2018-11-26T12:15:43.504Z,5932.00
2018-11-26T12:16:43.502Z,5700.00
2018-11-26T12:17:43.479Z,5580.00
2018-11-26T12:18:43.467Z,5632.00
2018-11-26T12:19:43.498Z,5788.00
2018-11-26T12:20:43.447Z,5980.00
2018-11-26T12:21:43.460Z,6256.00
2018-11-26T12:22:43.425Z,6524.00
2018-11-26T12:23:43.420Z,6660.00
2018-11-26T12:24:43.407Z,6724.00
2018-11-26T12:25:43.396Z,6728.00
2018-11-26T12:26:43.396Z,6688.00
2018-11-26T12:27:43.380Z,6612.00
2018-11-26T12:28:43.368Z,6544.00
2018-11-26T12:29:43.351Z,6540.00
2018-11-26T12:30:43.342Z,6612.00
2018-11-26T12:31:43.342Z,6668.00
2018-11-26T12:32:43.319Z,6620.00
2018-11-26T12:33:43.309Z,6456.00
2018-11-26T12:34:43.308Z,6224.00
2018-11-26T12:35:43.289Z,6036.00
2018-11-26T12:36:43.291Z,5880.00
2018-11-26T12:37:43.266Z,5792.00
2018-11-26T12:38:43.256Z,5776.00
2018-11-26T12:39:43.245Z,5824.00
2018-11-26T12:40:43.242Z,5904.00
2018-11-26T12:41:43.240Z,5960.00
2018-11-26T12:42:43.220Z,5916.00